createdAt,value
2022-12-15T00:00:11.347Z,-6.52
2022-12-15T00:02:56.726Z,-6.48
2022-12-15T00:05:41.881Z,-6.35
2022-12-15T00:08:28.987Z,-6.81
2022-12-15T00:11:14.833Z,-6.66
2022-12-15T00:13:59.869Z,-6.94
2022-12-15T00:16:45.606Z,-6.91
2022-12-15T00:19:31.028Z,-6.97
2022-12-15T00:22:16.233Z,-7.10
2022-12-15T00:25:01.551Z,-6.74
2022-12-15T00:27:46.687Z,-6.78
2022-12-15T00:30:31.916Z,-6.73
2022-12-15T00:33:17.074Z,-6.82
2022-12-15T00:36:02.165Z,-6.77
2022-12-15T00:38:47.585Z,-6.76
2022-12-15T00:41:18.644Z,-6.83
2022-12-15T00:43:45.788Z,-7.12
2022-12-15T00:46:31.457Z,-7.00
2022-12-15T00:48:58.192Z,-7.06
2022-12-15T00:51:44.366Z,-6.93
2022-12-15T00:54:29.585Z,-6.96
2022-12-15T00:57:15.116Z,-6.94
2022-12-15T01:00:00.463Z,-6.81
2022-12-15T01:02:46.126Z,-6.80
2022-12-15T01:05:31.447Z,-6.82
2022-12-15T01:08:18.727Z,-7.06
2022-12-15T01:11:04.071Z,-6.91
2022-12-15T01:13:49.598Z,-7.16
2022-12-15T01:16:35.263Z,-7.27
2022-12-15T01:19:22.545Z,-7.08
2022-12-15T01:21:49.811Z,-7.17
2022-12-15T01:24:16.544Z,-7.14
2022-12-15T01:26:43.172Z,-7.50
2022-12-15T01:29:09.777Z,-7.47
2022-12-15T01:31:36.719Z,-7.19
2022-12-15T01:34:03.379Z,-7.40
2022-12-15T01:36:29.975Z,-7.15
2022-12-15T01:38:56.777Z,-7.05
2022-12-15T01:41:23.532Z,-7.23
2022-12-15T01:43:50.805Z,-7.24
2022-12-15T01:46:21.018Z,-6.95
2022-12-15T01:48:54.797Z,-7.15
2022-12-15T01:51:49.837Z,-6.91
2022-12-15T01:54:21.392Z,-6.89
2022-12-15T01:56:52.653Z,-6.81
2022-12-15T01:59:23.796Z,-6.99
2022-12-15T02:01:50.657Z,-7.16
2022-12-15T02:04:20.676Z,-7.04
2022-12-15T02:06:47.226Z,-6.85
2022-12-15T02:09:14.947Z,-6.85
2022-12-15T02:11:56.035Z,-6.92
2022-12-15T02:14:59.900Z,-6.73
2022-12-15T02:17:47.010Z,-7.12
2022-12-15T02:20:41.893Z,-6.94
2022-12-15T02:23:08.493Z,-6.91
2022-12-15T02:25:54.504Z,-6.93
2022-12-15T02:28:23.862Z,-6.95
2022-12-15T02:31:18.736Z,-7.09
2022-12-15T02:33:52.938Z,-6.83
2022-12-15T02:36:29.827Z,-7.34
2022-12-15T02:38:56.540Z,-7.05
2022-12-15T02:41:40.726Z,-6.94
2022-12-15T02:44:19.964Z,-7.31
2022-12-15T02:47:04.874Z,-7.16
2022-12-15T02:49:49.898Z,-7.13
2022-12-15T02:52:35.330Z,-7.15
2022-12-15T02:55:28.102Z,-7.03
2022-12-15T02:58:01.942Z,-7.07
2022-12-15T03:00:33.394Z,-7.20
2022-12-15T03:03:00.312Z,-7.29
2022-12-15T03:05:27.219Z,-7.25
2022-12-15T03:07:54.617Z,-7.05
2022-12-15T03:10:24.442Z,-7.00
2022-12-15T03:12:51.699Z,-7.21
2022-12-15T03:15:19.459Z,-6.65
2022-12-15T03:17:46.239Z,-6.75
2022-12-15T03:20:13.042Z,-6.79
2022-12-15T03:22:40.174Z,-6.92
2022-12-15T03:25:07.113Z,-7.03
2022-12-15T03:27:35.302Z,-6.82
2022-12-15T03:30:04.710Z,-7.02
2022-12-15T03:32:31.865Z,-7.09
2022-12-15T03:34:58.480Z,-7.02
2022-12-15T03:37:25.155Z,-7.00
2022-12-15T03:39:51.879Z,-7.23
2022-12-15T03:42:38.491Z,-6.99
2022-12-15T03:45:05.662Z,-7.31
2022-12-15T03:47:32.336Z,-7.01
2022-12-15T03:49:58.990Z,-7.07
2022-12-15T03:52:25.654Z,-7.27
2022-12-15T03:54:52.264Z,-7.18
2022-12-15T03:57:18.888Z,-7.21
2022-12-15T03:59:45.528Z,-7.21
2022-12-15T04:02:12.285Z,-7.02
2022-12-15T04:04:38.995Z,-7.21
2022-12-15T04:07:05.657Z,-7.06
2022-12-15T04:09:32.215Z,-7.63
2022-12-15T04:11:58.864Z,-7.18
2022-12-15T04:14:25.408Z,-7.46
2022-12-15T04:16:52.037Z,-7.24
2022-12-15T04:19:37.332Z,-7.38
2022-12-15T04:22:04.155Z,-7.39
2022-12-15T04:24:49.106Z,-7.28
2022-12-15T04:27:34.144Z,-7.30
2022-12-15T04:30:19.886Z,-7.17
2022-12-15T04:33:05.019Z,-7.17
2022-12-15T04:35:52.633Z,-7.02
2022-12-15T04:38:45.480Z,-7.26
2022-12-15T04:41:37.022Z,-7.08
2022-12-15T04:44:22.838Z,-6.99
2022-12-15T04:47:07.981Z,-7.02
2022-12-15T04:49:53.192Z,-6.90
2022-12-15T04:52:38.458Z,-7.23
2022-12-15T04:55:24.142Z,-7.02
2022-12-15T04:58:09.463Z,-7.01
2022-12-15T05:00:55.237Z,-6.96
2022-12-15T05:03:40.410Z,-7.20
2022-12-15T05:06:25.541Z,-7.16
2022-12-15T05:09:11.102Z,-7.04
2022-12-15T05:11:56.820Z,-7.11
2022-12-15T05:14:42.196Z,-7.08
2022-12-15T05:17:27.632Z,-7.18
2022-12-15T05:20:12.961Z,-7.23
2022-12-15T05:22:57.836Z,-7.28
2022-12-15T05:25:42.800Z,-7.09
2022-12-15T05:28:27.583Z,-7.13
2022-12-15T05:31:12.926Z,-7.34
2022-12-15T05:33:39.743Z,-7.15
2022-12-15T05:36:06.649Z,-7.21
2022-12-15T05:38:33.395Z,-7.00
2022-12-15T05:41:00.191Z,-6.86
2022-12-15T05:43:28.259Z,-6.72
2022-12-15T05:46:02.440Z,-6.97
2022-12-15T05:48:29.044Z,-6.94
2022-12-15T05:50:55.634Z,-6.94
2022-12-15T05:53:22.260Z,-7.36
2022-12-15T05:55:48.865Z,-7.14
2022-12-15T05:58:15.480Z,-6.94
2022-12-15T06:00:42.181Z,-6.96
2022-12-15T06:03:08.873Z,-7.06
2022-12-15T06:05:35.549Z,-6.85
2022-12-15T06:08:02.139Z,-7.12
2022-12-15T06:10:28.820Z,-7.06
2022-12-15T06:12:55.411Z,-7.01
2022-12-15T06:15:22.046Z,-7.10
2022-12-15T06:17:49.713Z,-6.90
2022-12-15T06:20:16.601Z,-6.83
2022-12-15T06:22:48.163Z,-6.91
2022-12-15T06:25:18.791Z,-6.96
2022-12-15T06:27:45.404Z,-7.01
2022-12-15T06:30:12.411Z,-6.98
2022-12-15T06:32:39.044Z,-6.76
2022-12-15T06:35:06.164Z,-6.77
2022-12-15T06:37:32.820Z,-6.87
2022-12-15T06:39:59.477Z,-6.93
2022-12-15T06:42:26.099Z,-7.13
2022-12-15T06:44:52.681Z,-7.03
2022-12-15T06:47:19.312Z,-7.30
2022-12-15T06:49:45.909Z,-7.25
2022-12-15T06:52:12.560Z,-7.29
2022-12-15T06:54:39.157Z,-7.27
2022-12-15T06:57:05.741Z,-7.19
2022-12-15T06:59:32.335Z,-7.45
2022-12-15T07:02:00.543Z,-7.35
2022-12-15T07:04:27.428Z,-7.53
2022-12-15T07:06:54.111Z,-7.41
2022-12-15T07:09:20.865Z,-7.57
2022-12-15T07:11:50.303Z,-7.52
2022-12-15T07:14:17.000Z,-7.39
2022-12-15T07:16:43.662Z,-7.62
2022-12-15T07:19:12.862Z,-7.59
2022-12-15T07:21:39.753Z,-7.48
2022-12-15T07:24:07.247Z,-7.70
2022-12-15T07:26:34.412Z,-7.73
2022-12-15T07:29:01.131Z,-7.55
2022-12-15T07:31:27.842Z,-7.51
2022-12-15T07:33:54.853Z,-7.58
2022-12-15T07:36:22.082Z,-7.58
2022-12-15T07:38:50.591Z,-7.99
2022-12-15T07:41:19.070Z,-8.24
2022-12-15T07:43:47.079Z,-8.26
2022-12-15T07:46:14.110Z,-8.51
2022-12-15T07:48:40.770Z,-8.15
2022-12-15T07:51:13.837Z,-8.18
2022-12-15T07:53:46.230Z,-8.13
2022-12-15T07:56:12.836Z,-8.12
2022-12-15T07:58:39.501Z,-8.07
2022-12-15T08:01:08.741Z,-7.98
2022-12-15T08:03:36.940Z,-7.95
2022-12-15T08:06:08.635Z,-7.97
2022-12-15T08:08:36.598Z,-8.55
2022-12-15T08:11:12.360Z,-8.15
2022-12-15T08:16:28.056Z,-8.42
2022-12-15T08:18:57.128Z,-8.46
2022-12-15T08:21:23.803Z,-8.35
2022-12-15T08:23:50.752Z,-8.52
2022-12-15T08:26:18.761Z,-8.61
2022-12-15T08:28:46.232Z,-8.39
2022-12-15T08:31:19.154Z,-8.24
2022-12-15T08:33:47.099Z,-7.98
2022-12-15T08:36:16.446Z,-8.27
2022-12-15T08:38:44.828Z,-8.07
2022-12-15T08:41:17.320Z,-8.01
2022-12-15T08:43:48.537Z,-7.95
2022-12-15T08:46:17.757Z,-7.81
2022-12-15T08:48:45.768Z,-7.78
2022-12-15T08:51:14.739Z,-7.63
2022-12-15T08:53:41.366Z,-7.49
2022-12-15T08:56:12.389Z,-7.39
2022-12-15T08:58:40.192Z,-7.39
2022-12-15T09:01:09.796Z,-7.17
2022-12-15T09:03:37.098Z,-7.03
2022-12-15T09:06:08.394Z,-6.81
2022-12-15T09:08:35.295Z,-6.76
2022-12-15T09:11:02.680Z,-6.68
2022-12-15T09:13:30.015Z,-6.55
2022-12-15T09:16:09.257Z,-6.37
2022-12-15T09:18:36.747Z,-6.48
2022-12-15T09:21:06.139Z,-6.38
2022-12-15T09:23:33.892Z,-6.26
2022-12-15T09:26:05.250Z,-6.38
2022-12-15T09:28:32.450Z,-6.37
2022-12-15T09:31:06.807Z,-6.48
2022-12-15T09:33:34.212Z,-6.67
2022-12-15T09:36:01.551Z,-6.76
2022-12-15T09:38:28.206Z,-6.56
2022-12-15T09:40:55.150Z,-6.37
2022-12-15T09:43:37.158Z,-6.08
2022-12-15T09:46:36.302Z,-6.24
2022-12-15T09:49:11.436Z,-6.12
2022-12-15T09:51:50.766Z,-5.96
2022-12-15T09:54:17.689Z,-6.06
2022-12-15T09:56:53.407Z,-5.61
2022-12-15T09:59:35.693Z,-5.69
2022-12-15T10:02:28.907Z,-6.03
2022-12-15T10:08:42.914Z,-5.76
2022-12-15T10:11:42.996Z,-5.82
2022-12-15T10:14:15.763Z,-5.99
2022-12-15T10:16:53.161Z,-5.86
2022-12-15T10:19:34.135Z,-5.50
2022-12-15T10:22:00.944Z,-5.31
2022-12-15T10:25:08.591Z,-5.21
2022-12-15T10:27:29.208Z,-5.11
2022-12-15T10:30:01.680Z,-4.77
2022-12-15T10:32:31.246Z,-4.83
2022-12-15T10:34:57.977Z,-4.86
2022-12-15T10:37:24.728Z,-4.60
2022-12-15T10:39:51.576Z,-4.43
2022-12-15T10:42:26.557Z,-4.26
2022-12-15T10:44:58.167Z,-4.33
2022-12-15T10:47:27.278Z,-4.19
2022-12-15T10:49:55.705Z,-4.02
2022-12-15T10:52:34.672Z,-4.17
2022-12-15T10:55:01.557Z,-4.48
2022-12-15T10:57:31.813Z,-4.53
2022-12-15T11:00:25.036Z,-4.17
2022-12-15T11:02:51.990Z,-4.07
2022-12-15T11:05:19.005Z,-4.01
2022-12-15T11:07:46.062Z,-4.17
2022-12-15T11:10:16.991Z,-4.20
2022-12-15T11:12:58.370Z,-4.32
2022-12-15T11:15:31.415Z,-4.23
2022-12-15T11:18:27.353Z,-4.18
2022-12-15T11:21:09.921Z,-4.13
2022-12-15T11:23:48.837Z,-4.06
2022-12-15T11:26:55.213Z,-4.21
2022-12-15T11:29:28.815Z,-4.03
2022-12-15T11:31:58.924Z,-3.89
2022-12-15T11:34:41.801Z,-3.90
2022-12-15T11:37:24.149Z,-3.72
2022-12-15T11:40:18.627Z,-3.70
2022-12-15T11:43:11.094Z,-3.69
2022-12-15T11:45:59.327Z,-3.76
2022-12-15T11:49:08.147Z,-3.62
2022-12-15T11:51:44.637Z,-3.41
2022-12-15T11:54:29.802Z,-3.48
2022-12-15T11:57:03.011Z,-2.91
2022-12-15T11:59:49.479Z,-3.07
2022-12-15T12:02:35.108Z,-3.52
2022-12-15T12:05:20.250Z,-3.50
2022-12-15T12:08:09.702Z,-3.21
2022-12-15T12:10:51.940Z,-2.97
2022-12-15T12:13:43.518Z,-2.70
2022-12-15T12:16:32.103Z,-2.71
2022-12-15T12:19:06.326Z,-3.06
2022-12-15T12:21:51.172Z,-2.91
2022-12-15T12:24:30.786Z,-2.88
2022-12-15T12:27:02.730Z,-2.96
2022-12-15T12:29:44.650Z,-2.97
2022-12-15T12:32:30.651Z,-2.63
2022-12-15T12:35:31.138Z,-3.06
2022-12-15T12:38:05.250Z,-2.78
2022-12-15T12:40:41.237Z,-3.04
2022-12-15T12:43:20.313Z,-3.09
2022-12-15T12:45:53.282Z,-3.31
2022-12-15T12:48:36.341Z,-3.23
2022-12-15T12:51:19.529Z,-3.02
2022-12-15T12:53:46.158Z,-2.87
2022-12-15T12:56:45.377Z,-2.65
2022-12-15T12:59:30.435Z,-2.94
2022-12-15T13:02:11.498Z,-2.69
2022-12-15T13:04:40.621Z,-2.55
2022-12-15T13:07:37.747Z,-2.44
2022-12-15T13:10:21.136Z,-2.35
2022-12-15T13:12:52.979Z,-2.41
2022-12-15T13:15:29.374Z,-2.59
2022-12-15T13:18:13.165Z,-2.82
2022-12-15T13:20:40.607Z,-3.04
2022-12-15T13:23:22.110Z,-2.78
2022-12-15T13:25:57.508Z,-2.72
2022-12-15T13:28:35.051Z,-2.88
2022-12-15T13:31:23.129Z,-2.89
2022-12-15T13:33:50.232Z,-3.01
2022-12-15T13:36:42.230Z,-3.16
2022-12-15T13:39:14.955Z,-3.17
2022-12-15T13:42:07.502Z,-3.18
2022-12-15T13:44:51.881Z,-3.38
2022-12-15T13:47:18.657Z,-3.35
2022-12-15T13:50:19.600Z,-3.28
2022-12-15T13:55:39.265Z,-3.53
2022-12-15T13:58:17.430Z,-3.75
2022-12-15T14:00:56.275Z,-3.64
2022-12-15T14:03:23.611Z,-3.75
2022-12-15T14:05:56.251Z,-3.64
2022-12-15T14:08:25.222Z,-3.80
2022-12-15T14:10:55.246Z,-3.63
2022-12-15T14:13:26.181Z,-3.55
2022-12-15T14:16:21.501Z,-3.56
2022-12-15T14:19:13.438Z,-3.58
2022-12-15T14:21:40.345Z,-3.45
2022-12-15T14:24:38.438Z,-3.39
2022-12-15T14:27:06.449Z,-3.37
2022-12-15T14:29:33.127Z,-3.55
2022-12-15T14:32:00.625Z,-3.36
2022-12-15T14:34:35.729Z,-3.57
2022-12-15T14:37:07.776Z,-3.43
2022-12-15T14:39:45.001Z,-3.44
2022-12-15T14:42:18.607Z,-3.67
2022-12-15T14:44:49.935Z,-3.52
2022-12-15T14:47:35.355Z,-3.59
2022-12-15T14:50:04.096Z,-3.75
2022-12-15T14:52:41.963Z,-3.70
2022-12-15T14:55:31.141Z,-3.85
2022-12-15T14:57:58.424Z,-4.20
2022-12-15T15:00:27.995Z,-4.21
2022-12-15T15:03:10.627Z,-3.48
2022-12-15T15:03:19.898Z,-4.45
2022-12-15T15:05:51.659Z,-4.50
2022-12-15T15:08:43.049Z,-4.47
2022-12-15T15:11:39.558Z,-4.54
2022-12-15T15:14:13.290Z,-4.58
2022-12-15T15:16:40.427Z,-4.85
2022-12-15T15:19:07.370Z,-4.87
2022-12-15T15:21:37.433Z,-4.72
2022-12-15T15:24:39.410Z,-5.06
2022-12-15T15:27:28.600Z,-4.91
2022-12-15T15:30:23.296Z,-5.00
2022-12-15T15:33:02.075Z,-5.16
2022-12-15T15:35:33.873Z,-5.21
2022-12-15T15:38:32.378Z,-5.31
2022-12-15T15:41:02.548Z,-5.39
2022-12-15T15:43:29.442Z,-5.48
2022-12-15T15:46:02.271Z,-5.78
2022-12-15T15:48:34.204Z,-5.68
2022-12-15T15:51:02.756Z,-5.57
2022-12-15T15:53:35.509Z,-5.92
2022-12-15T15:56:07.969Z,-5.70
2022-12-15T15:58:36.192Z,-5.85
2022-12-15T16:01:06.908Z,-5.75
2022-12-15T16:03:38.518Z,-6.05
2022-12-15T16:06:06.677Z,-5.74
2022-12-15T16:08:36.397Z,-5.69
2022-12-15T16:11:03.591Z,-5.69
2022-12-15T16:13:30.250Z,-5.92
2022-12-15T16:15:56.931Z,-5.71
2022-12-15T16:18:24.262Z,-5.86
2022-12-15T16:20:51.910Z,-5.71
2022-12-15T16:23:26.405Z,-5.82
2022-12-15T16:25:56.237Z,-5.90
2022-12-15T16:28:25.806Z,-5.72
2022-12-15T16:30:52.939Z,-5.70
2022-12-15T16:33:20.035Z,-5.80
2022-12-15T16:35:48.296Z,-5.86
2022-12-15T16:38:26.869Z,-5.86
2022-12-15T16:40:55.532Z,-6.10
2022-12-15T16:43:26.167Z,-6.04
2022-12-15T16:45:54.847Z,-6.07
2022-12-15T16:48:22.048Z,-6.28
2022-12-15T16:50:55.231Z,-6.04
2022-12-15T16:53:34.460Z,-6.09
2022-12-15T16:56:04.705Z,-6.27
2022-12-15T16:58:34.288Z,-6.13
2022-12-15T17:01:01.537Z,-6.35
2022-12-15T17:03:28.394Z,-6.31
2022-12-15T17:06:01.099Z,-6.10
2022-12-15T17:08:33.637Z,-6.09
2022-12-15T17:11:01.122Z,-6.06
2022-12-15T17:13:45.591Z,-6.02
2022-12-15T17:16:14.642Z,-6.05
2022-12-15T17:18:42.939Z,-6.04
2022-12-15T17:21:15.833Z,-6.15
2022-12-15T17:23:48.013Z,-6.06
2022-12-15T17:26:29.709Z,-6.14
2022-12-15T17:29:00.966Z,-5.93
2022-12-15T17:31:34.893Z,-5.87
2022-12-15T17:34:28.583Z,-6.10
2022-12-15T17:36:56.848Z,-5.73
2022-12-15T17:39:23.642Z,-5.72
2022-12-15T17:42:05.939Z,-5.55
2022-12-15T17:44:37.284Z,-5.57
2022-12-15T17:47:07.949Z,-5.80
2022-12-15T17:49:37.580Z,-5.58
2022-12-15T17:52:22.165Z,-5.60
2022-12-15T17:54:49.282Z,-5.84
2022-12-15T17:57:15.917Z,-6.10
2022-12-15T17:59:42.741Z,-6.11
2022-12-15T18:02:13.186Z,-5.90
2022-12-15T18:04:40.972Z,-6.16
2022-12-15T18:07:14.006Z,-6.01
2022-12-15T18:09:41.518Z,-6.09
2022-12-15T18:12:18.009Z,-5.91
2022-12-15T18:14:44.717Z,-6.06
2022-12-15T18:17:11.396Z,-5.97
2022-12-15T18:19:38.047Z,-5.79
2022-12-15T18:22:04.678Z,-5.87
2022-12-15T18:24:31.292Z,-5.76
2022-12-15T18:26:57.909Z,-5.72
2022-12-15T18:29:24.597Z,-5.71
2022-12-15T18:31:51.305Z,-5.75
2022-12-15T18:34:21.159Z,-5.63
2022-12-15T18:36:47.927Z,-5.71
2022-12-15T18:39:26.217Z,-5.68
2022-12-15T18:41:56.166Z,-5.61
2022-12-15T18:44:27.715Z,-5.22
2022-12-15T18:46:55.209Z,-5.19
2022-12-15T18:49:22.774Z,-5.11
2022-12-15T18:51:49.676Z,-5.32
2022-12-15T18:54:19.788Z,-5.25
2022-12-15T18:56:46.498Z,-5.18
2022-12-15T18:59:17.524Z,-5.08
2022-12-15T19:01:45.904Z,-5.28
2022-12-15T19:04:12.903Z,-5.31
2022-12-15T19:06:40.902Z,-5.22
2022-12-15T19:09:17.546Z,-5.32
2022-12-15T19:12:17.527Z,-5.25
2022-12-15T19:14:47.039Z,-5.15
2022-12-15T19:17:36.312Z,-5.39
2022-12-15T19:20:35.020Z,-5.05
2022-12-15T19:23:01.768Z,-5.25
2022-12-15T19:25:29.557Z,-5.03
2022-12-15T19:28:00.560Z,-5.16
2022-12-15T19:30:30.406Z,-4.94
2022-12-15T19:32:57.533Z,-4.89
2022-12-15T19:35:25.113Z,-5.00
2022-12-15T19:37:55.129Z,-4.81
2022-12-15T19:40:30.828Z,-4.80
2022-12-15T19:42:58.602Z,-4.74
2022-12-15T19:45:27.726Z,-4.59
2022-12-15T19:47:55.274Z,-4.90
2022-12-15T19:50:25.017Z,-4.42
2022-12-15T19:52:55.272Z,-4.39
2022-12-15T19:55:28.254Z,-4.52
2022-12-15T19:57:54.953Z,-4.64
2022-12-15T20:00:22.770Z,-4.42
2022-12-15T20:02:51.596Z,-4.46
2022-12-15T20:05:19.570Z,-4.52
2022-12-15T20:07:46.595Z,-4.61
2022-12-15T20:10:31.372Z,-4.68
2022-12-15T20:12:59.617Z,-4.74
2022-12-15T20:15:26.556Z,-4.87
2022-12-15T20:17:57.092Z,-4.50
2022-12-15T20:20:26.808Z,-4.49
2022-12-15T20:22:56.790Z,-4.35
2022-12-15T20:25:29.653Z,-4.70
2022-12-15T20:27:57.145Z,-4.58
2022-12-15T20:30:27.062Z,-4.46
2022-12-15T20:32:54.365Z,-4.52
2022-12-15T20:35:22.397Z,-4.68
2022-12-15T20:37:49.911Z,-4.47
2022-12-15T20:40:21.964Z,-4.51
2022-12-15T20:42:49.781Z,-4.81
2022-12-15T20:45:18.247Z,-4.71
2022-12-15T20:47:46.690Z,-4.77
2022-12-15T20:50:41.124Z,-4.52
2022-12-15T20:53:23.307Z,-4.88
2022-12-15T20:55:51.601Z,-4.58
2022-12-15T20:58:19.452Z,-4.67
2022-12-15T21:00:48.499Z,-4.44
2022-12-15T21:03:24.885Z,-4.48
2022-12-15T21:05:55.329Z,-4.50
2022-12-15T21:08:28.525Z,-4.78
2022-12-15T21:11:01.405Z,-4.55
2022-12-15T21:13:33.137Z,-4.55
2022-12-15T21:16:00.314Z,-4.87
2022-12-15T21:19:10.820Z,-4.65
2022-12-15T21:21:18.861Z,-4.60
2022-12-15T21:23:45.718Z,-4.51
2022-12-15T21:26:13.686Z,-4.49
2022-12-15T21:28:40.285Z,-4.60
2022-12-15T21:31:07.102Z,-4.85
2022-12-15T21:33:33.854Z,-4.50
2022-12-15T21:36:00.576Z,-4.65
2022-12-15T21:38:40.089Z,-4.54
2022-12-15T21:41:13.913Z,-4.62
2022-12-15T21:43:40.598Z,-4.54
2022-12-15T21:46:16.083Z,-4.65
2022-12-15T21:49:03.066Z,-4.56
2022-12-15T21:51:34.727Z,-4.48
2022-12-15T21:54:01.453Z,-4.54
2022-12-15T21:56:28.282Z,-4.65
2022-12-15T21:58:56.557Z,-4.45
2022-12-15T22:01:27.586Z,-4.39
2022-12-15T22:03:56.924Z,-4.38
2022-12-15T22:06:29.553Z,-4.41
2022-12-15T22:09:00.984Z,-4.41
2022-12-15T22:11:30.208Z,-4.42
2022-12-15T22:13:59.018Z,-4.63
2022-12-15T22:16:25.824Z,-4.62
2022-12-15T22:18:55.574Z,-4.39
2022-12-15T22:21:23.828Z,-4.39
2022-12-15T22:23:51.342Z,-4.43
2022-12-15T22:26:22.260Z,-4.35
2022-12-15T22:28:51.011Z,-4.53
2022-12-15T22:31:18.728Z,-4.55
2022-12-15T22:33:45.598Z,-4.66
2022-12-15T22:36:12.317Z,-4.44
2022-12-15T22:38:38.907Z,-4.47
2022-12-15T22:41:06.914Z,-4.53
2022-12-15T22:43:39.824Z,-4.67
2022-12-15T22:46:10.473Z,-4.43
2022-12-15T22:48:41.520Z,-4.30
2022-12-15T22:51:12.987Z,-4.40
2022-12-15T22:53:39.840Z,-4.40
2022-12-15T22:56:15.749Z,-4.58
2022-12-15T22:58:45.397Z,-4.42
2022-12-15T23:01:12.735Z,-4.56
2022-12-15T23:03:39.388Z,-4.37
2022-12-15T23:06:06.326Z,-4.56
2022-12-15T23:08:33.005Z,-4.45
2022-12-15T23:11:18.299Z,-4.48
2022-12-15T23:13:44.933Z,-4.28
2022-12-15T23:16:21.531Z,-4.42
2022-12-15T23:18:50.653Z,-4.31
2022-12-15T23:21:19.178Z,-4.36
2022-12-15T23:23:45.897Z,-4.36
2022-12-15T23:26:13.694Z,-4.33
2022-12-15T23:28:40.691Z,-4.25
2022-12-15T23:31:08.227Z,-4.17
2022-12-15T23:33:35.550Z,-4.46
2022-12-15T23:36:03.180Z,-4.26
2022-12-15T23:38:29.824Z,-4.46
2022-12-15T23:40:57.856Z,-4.25
2022-12-15T23:43:26.309Z,-4.33
2022-12-15T23:45:58.654Z,-4.31
2022-12-15T23:48:28.777Z,-4.12
2022-12-15T23:50:55.361Z,-4.27
2022-12-15T23:53:21.961Z,-4.74
2022-12-15T23:55:48.599Z,-4.36
2022-12-15T23:58:15.213Z,-4.44
